sensor_id;sensor_type;location;lat;lon;timestamp;pressure;altitude;pressure_sealevel;temperature;humidity
29359;BME280;16347;53.232;6.556;2023-06-22T00:00:33;101976.69;;;26.31;48.17
29359;BME280;16347;53.232;6.556;2023-06-22T00:03:01;101980.56;;;26.30;48.22
29359;BME280;16347;53.232;6.556;2023-06-22T00:05:30;101981.41;;;26.30;48.31
29359;BME280;16347;53.232;6.556;2023-06-22T00:08:03;101977.31;;;26.33;48.23
29359;BME280;16347;53.232;6.556;2023-06-22T00:10:31;101980.34;;;26.31;48.34
29359;BME280;16347;53.232;6.556;2023-06-22T00:12:59;101979.50;;;26.31;48.28
29359;BME280;16347;53.232;6.556;2023-06-22T00:15:27;101983.13;;;26.31;48.38
29359;BME280;16347;53.232;6.556;2023-06-22T00:17:56;101982.97;;;26.26;48.07
29359;BME280;16347;53.232;6.556;2023-06-22T00:20:25;101983.91;;;26.20;48.07
29359;BME280;16347;53.232;6.556;2023-06-22T00:22:59;101982.22;;;26.19;48.53
29359;BME280;16347;53.232;6.556;2023-06-22T00:25:27;101985.25;;;26.18;48.90
29359;BME280;16347;53.232;6.556;2023-06-22T00:27:55;101978.59;;;26.19;48.55
29359;BME280;16347;53.232;6.556;2023-06-22T00:30:23;101979.00;;;26.16;48.22
29359;BME280;16347;53.232;6.556;2023-06-22T00:32:50;101983.38;;;26.12;48.10
29359;BME280;16347;53.232;6.556;2023-06-22T00:35:18;101983.59;;;26.10;48.59
29359;BME280;16347;53.232;6.556;2023-06-22T00:37:46;101991.72;;;26.12;48.62
29359;BME280;16347;53.232;6.556;2023-06-22T00:40:16;101987.00;;;26.12;48.46
29359;BME280;16347;53.232;6.556;2023-06-22T00:42:48;101995.13;;;26.14;48.29
29359;BME280;16347;53.232;6.556;2023-06-22T00:45:16;101996.19;;;26.13;48.35
29359;BME280;16347;53.232;6.556;2023-06-22T00:47:45;102000.09;;;26.12;48.31
29359;BME280;16347;53.232;6.556;2023-06-22T00:50:18;101997.31;;;26.12;48.27
29359;BME280;16347;53.232;6.556;2023-06-22T00:52:49;102007.59;;;26.11;48.39
29359;BME280;16347;53.232;6.556;2023-06-22T00:55:20;101993.66;;;26.11;48.10
29359;BME280;16347;53.232;6.556;2023-06-22T00:57:49;101997.53;;;26.10;48.08
29359;BME280;16347;53.232;6.556;2023-06-22T01:00:18;102001.63;;;26.08;48.07
29359;BME280;16347;53.232;6.556;2023-06-22T01:02:46;102000.31;;;26.10;47.49
29359;BME280;16347;53.232;6.556;2023-06-22T01:05:19;102000.34;;;25.92;47.90
29359;BME280;16347;53.232;6.556;2023-06-22T01:08:02;101997.97;;;25.89;48.13
29359;BME280;16347;53.232;6.556;2023-06-22T01:10:37;102001.50;;;25.84;48.66
29359;BME280;16347;53.232;6.556;2023-06-22T01:13:15;102001.56;;;25.78;48.68
29359;BME280;16347;53.232;6.556;2023-06-22T01:15:46;101993.41;;;25.76;48.82
29359;BME280;16347;53.232;6.556;2023-06-22T01:18:17;101988.69;;;25.77;49.30
29359;BME280;16347;53.232;6.556;2023-06-22T01:20:47;101991.09;;;25.73;48.36
29359;BME280;16347;53.232;6.556;2023-06-22T01:23:24;101995.44;;;25.69;48.35
29359;BME280;16347;53.232;6.556;2023-06-22T01:26:04;101996.34;;;25.63;48.47
29359;BME280;16347;53.232;6.556;2023-06-22T01:28:43;101986.06;;;25.64;49.10
29359;BME280;16347;53.232;6.556;2023-06-22T01:31:14;101990.38;;;25.60;48.75
29359;BME280;16347;53.232;6.556;2023-06-22T01:33:46;101987.00;;;25.58;48.44
29359;BME280;16347;53.232;6.556;2023-06-22T01:36:16;101994.97;;;25.54;48.03
29359;BME280;16347;53.232;6.556;2023-06-22T01:38:47;101987.94;;;25.45;48.17
29359;BME280;16347;53.232;6.556;2023-06-22T01:41:19;101992.88;;;25.43;48.17
29359;BME280;16347;53.232;6.556;2023-06-22T01:43:49;101984.13;;;25.39;48.65
29359;BME280;16347;53.232;6.556;2023-06-22T01:46:19;101987.31;;;25.43;48.30
29359;BME280;16347;53.232;6.556;2023-06-22T01:48:49;101977.63;;;25.45;48.64
29359;BME280;16347;53.232;6.556;2023-06-22T01:51:18;101977.44;;;25.47;48.61
29359;BME280;16347;53.232;6.556;2023-06-22T01:53:45;101968.63;;;25.50;48.04
29359;BME280;16347;53.232;6.556;2023-06-22T01:56:16;101975.97;;;25.44;48.05
29359;BME280;16347;53.232;6.556;2023-06-22T01:58:49;101960.09;;;25.45;48.53
29359;BME280;16347;53.232;6.556;2023-06-22T02:01:23;101969.06;;;25.47;48.42
29359;BME280;16347;53.232;6.556;2023-06-22T02:03:58;101970.16;;;25.46;48.07
29359;BME280;16347;53.232;6.556;2023-06-22T02:06:33;101977.88;;;25.44;48.23
29359;BME280;16347;53.232;6.556;2023-06-22T02:09:07;101970.59;;;25.43;48.14
29359;BME280;16347;53.232;6.556;2023-06-22T02:11:38;101968.47;;;25.45;47.96
29359;BME280;16347;53.232;6.556;2023-06-22T02:14:10;101966.34;;;25.40;47.31
29359;BME280;16347;53.232;6.556;2023-06-22T02:16:40;101966.81;;;25.37;47.62
29359;BME280;16347;53.232;6.556;2023-06-22T02:19:08;101973.31;;;25.31;48.05
29359;BME280;16347;53.232;6.556;2023-06-22T02:21:36;101972.19;;;25.32;48.49
29359;BME280;16347;53.232;6.556;2023-06-22T02:24:04;101972.84;;;25.34;47.81
29359;BME280;16347;53.232;6.556;2023-06-22T02:26:32;101968.56;;;25.32;47.52
29359;BME280;16347;53.232;6.556;2023-06-22T02:29:01;101969.41;;;25.32;48.18
29359;BME280;16347;53.232;6.556;2023-06-22T02:31:30;101963.00;;;25.32;48.59
29359;BME280;16347;53.232;6.556;2023-06-22T02:33:58;101952.03;;;25.37;48.30
29359;BME280;16347;53.232;6.556;2023-06-22T02:36:26;101956.34;;;25.33;47.65
29359;BME280;16347;53.232;6.556;2023-06-22T02:38:59;101951.47;;;25.28;48.19
29359;BME280;16347;53.232;6.556;2023-06-22T02:41:29;101958.34;;;25.26;48.36
29359;BME280;16347;53.232;6.556;2023-06-22T02:43:57;101958.59;;;25.24;48.26
29359;BME280;16347;53.232;6.556;2023-06-22T02:46:25;101957.88;;;25.29;48.33
29359;BME280;16347;53.232;6.556;2023-06-22T02:48:55;101963.47;;;25.29;48.48
29359;BME280;16347;53.232;6.556;2023-06-22T02:51:22;101961.06;;;25.32;48.18
29359;BME280;16347;53.232;6.556;2023-06-22T02:53:50;101975.84;;;25.33;48.19
29359;BME280;16347;53.232;6.556;2023-06-22T02:56:24;101976.09;;;25.31;47.74
29359;BME280;16347;53.232;6.556;2023-06-22T02:58:57;101973.53;;;25.30;47.95
29359;BME280;16347;53.232;6.556;2023-06-22T03:01:31;101968.88;;;25.24;47.86
29359;BME280;16347;53.232;6.556;2023-06-22T03:04:07;101975.97;;;25.20;48.05
29359;BME280;16347;53.232;6.556;2023-06-22T03:06:35;101965.91;;;25.19;48.35
29359;BME280;16347;53.232;6.556;2023-06-22T03:09:04;101973.44;;;25.18;48.06
29359;BME280;16347;53.232;6.556;2023-06-22T03:11:34;101977.03;;;25.19;48.45
29359;BME280;16347;53.232;6.556;2023-06-22T03:14:02;101979.38;;;25.22;48.51
29359;BME280;16347;53.232;6.556;2023-06-22T03:16:30;101981.94;;;25.23;48.20
29359;BME280;16347;53.232;6.556;2023-06-22T03:18:59;101973.44;;;25.18;47.30
29359;BME280;16347;53.232;6.556;2023-06-22T03:21:28;101976.25;;;25.12;47.75
29359;BME280;16347;53.232;6.556;2023-06-22T03:23:57;101974.56;;;25.11;48.17
29359;BME280;16347;53.232;6.556;2023-06-22T03:26:26;101967.88;;;25.12;48.46
29359;BME280;16347;53.232;6.556;2023-06-22T03:28:54;101969.41;;;25.14;47.92
29359;BME280;16347;53.232;6.556;2023-06-22T03:31:22;101965.56;;;25.09;47.30
29359;BME280;16347;53.232;6.556;2023-06-22T03:33:50;101971.25;;;24.95;47.29
29359;BME280;16347;53.232;6.556;2023-06-22T03:36:18;101968.34;;;24.84;48.09
29359;BME280;16347;53.232;6.556;2023-06-22T03:38:49;101968.13;;;24.79;48.42
29359;BME280;16347;53.232;6.556;2023-06-22T03:41:17;101977.38;;;24.73;48.61
29359;BME280;16347;53.232;6.556;2023-06-22T03:43:46;101976.31;;;24.74;49.58
29359;BME280;16347;53.232;6.556;2023-06-22T03:46:14;101975.63;;;24.78;49.56
29359;BME280;16347;53.232;6.556;2023-06-22T03:48:42;101976.72;;;24.84;49.36
29359;BME280;16347;53.232;6.556;2023-06-22T03:51:10;101973.00;;;24.90;49.44
29359;BME280;16347;53.232;6.556;2023-06-22T03:53:38;101968.72;;;24.94;48.76
29359;BME280;16347;53.232;6.556;2023-06-22T03:56:08;101965.28;;;24.92;48.79
29359;BME280;16347;53.232;6.556;2023-06-22T03:58:36;101958.44;;;24.94;49.03
29359;BME280;16347;53.232;6.556;2023-06-22T04:01:09;101965.47;;;24.97;49.15
29359;BME280;16347;53.232;6.556;2023-06-22T04:03:38;101966.06;;;24.99;48.83
29359;BME280;16347;53.232;6.556;2023-06-22T04:06:06;101961.84;;;24.96;48.91
29359;BME280;16347;53.232;6.556;2023-06-22T04:08:34;101956.88;;;24.98;48.74
29359;BME280;16347;53.232;6.556;2023-06-22T04:11:02;101955.81;;;24.99;48.96
29359;BME280;16347;53.232;6.556;2023-06-22T04:13:31;101963.69;;;25.02;49.08
29359;BME280;16347;53.232;6.556;2023-06-22T04:16:00;101960.47;;;25.06;49.10
29359;BME280;16347;53.232;6.556;2023-06-22T04:18:28;101961.97;;;25.08;48.90
29359;BME280;16347;53.232;6.556;2023-06-22T04:20:56;101965.97;;;25.12;48.88
29359;BME280;16347;53.232;6.556;2023-06-22T04:23:24;101968.53;;;25.14;48.64
29359;BME280;16347;53.232;6.556;2023-06-22T04:25:52;101968.28;;;25.15;48.50
29359;BME280;16347;53.232;6.556;2023-06-22T04:28:20;101972.19;;;25.14;48.50
29359;BME280;16347;53.232;6.556;2023-06-22T04:30:49;101976.88;;;25.14;48.96
29359;BME280;16347;53.232;6.556;2023-06-22T04:33:17;101977.28;;;25.17;48.87
29359;BME280;16347;53.232;6.556;2023-06-22T04:35:45;101983.25;;;25.21;48.87
29359;BME280;16347;53.232;6.556;2023-06-22T04:38:13;101974.03;;;25.20;49.12
29359;BME280;16347;53.232;6.556;2023-06-22T04:40:41;101963.75;;;25.21;48.87
29359;BME280;16347;53.232;6.556;2023-06-22T04:43:10;101959.88;;;25.22;48.87
29359;BME280;16347;53.232;6.556;2023-06-22T04:45:37;101957.75;;;25.24;48.66
29359;BME280;16347;53.232;6.556;2023-06-22T04:48:07;101960.34;;;25.19;48.89
29359;BME280;16347;53.232;6.556;2023-06-22T04:50:37;101957.34;;;25.20;49.05
29359;BME280;16347;53.232;6.556;2023-06-22T04:53:06;101954.09;;;25.23;49.18
29359;BME280;16347;53.232;6.556;2023-06-22T04:55:36;101954.09;;;25.23;49.38
29359;BME280;16347;53.232;6.556;2023-06-22T04:58:08;101951.31;;;25.23;49.56
29359;BME280;16347;53.232;6.556;2023-06-22T05:00:39;101952.56;;;25.27;49.39
29359;BME280;16347;53.232;6.556;2023-06-22T05:03:09;101946.75;;;25.29;49.37
29359;BME280;16347;53.232;6.556;2023-06-22T05:05:46;101952.31;;;25.29;49.46
29359;BME280;16347;53.232;6.556;2023-06-22T05:08:16;101953.56;;;25.33;49.63
29359;BME280;16347;53.232;6.556;2023-06-22T05:10:46;101946.28;;;25.32;49.53
29359;BME280;16347;53.232;6.556;2023-06-22T05:13:30;101957.81;;;25.35;49.42
29359;BME280;16347;53.232;6.556;2023-06-22T05:15:58;101958.69;;;25.36;49.47
29359;BME280;16347;53.232;6.556;2023-06-22T05:18:31;101952.91;;;25.37;49.69
29359;BME280;16347;53.232;6.556;2023-06-22T05:21:00;101960.78;;;25.40;49.66
29359;BME280;16347;53.232;6.556;2023-06-22T05:23:28;101960.78;;;25.40;49.52
29359;BME280;16347;53.232;6.556;2023-06-22T05:25:56;101961.63;;;25.41;49.53
29359;BME280;16347;53.232;6.556;2023-06-22T05:28:25;101959.06;;;25.39;49.65
29359;BME280;16347;53.232;6.556;2023-06-22T05:30:54;101962.94;;;25.38;49.86
29359;BME280;16347;53.232;6.556;2023-06-22T05:33:22;101958.22;;;25.39;49.49
29359;BME280;16347;53.232;6.556;2023-06-22T05:35:52;101970.00;;;25.41;50.04
29359;BME280;16347;53.232;6.556;2023-06-22T05:38:20;101959.94;;;25.40;49.78
29359;BME280;16347;53.232;6.556;2023-06-22T05:40:48;101966.56;;;25.39;49.81
29359;BME280;16347;53.232;6.556;2023-06-22T05:43:17;101966.16;;;25.35;50.09
29359;BME280;16347;53.232;6.556;2023-06-22T05:45:45;101957.22;;;25.33;50.16
29359;BME280;16347;53.232;6.556;2023-06-22T05:48:13;101961.91;;;25.33;50.64
29359;BME280;16347;53.232;6.556;2023-06-22T05:50:41;101960.47;;;25.30;49.95
29359;BME280;16347;53.232;6.556;2023-06-22T05:53:11;101962.00;;;25.26;50.94
29359;BME280;16347;53.232;6.556;2023-06-22T05:55:40;101957.34;;;25.20;50.76
29359;BME280;16347;53.232;6.556;2023-06-22T05:58:09;101951.16;;;25.18;50.86
29359;BME280;16347;53.232;6.556;2023-06-22T06:00:37;101947.53;;;25.18;51.21
29359;BME280;16347;53.232;6.556;2023-06-22T06:03:06;101953.94;;;25.18;51.24
29359;BME280;16347;53.232;6.556;2023-06-22T06:05:35;101950.69;;;25.21;51.20
29359;BME280;16347;53.232;6.556;2023-06-22T06:08:05;101958.81;;;25.23;51.06
29359;BME280;16347;53.232;6.556;2023-06-22T06:10:36;101954.31;;;25.22;51.36
29359;BME280;16347;53.232;6.556;2023-06-22T06:13:04;101964.78;;;25.26;51.71
29359;BME280;16347;53.232;6.556;2023-06-22T06:15:33;101962.38;;;25.30;51.49
29359;BME280;16347;53.232;6.556;2023-06-22T06:18:04;101960.38;;;25.37;50.78
29359;BME280;16347;53.232;6.556;2023-06-22T06:20:34;101957.13;;;25.40;50.89
29359;BME280;16347;53.232;6.556;2023-06-22T06:23:02;101965.03;;;25.43;50.68
29359;BME280;16347;53.232;6.556;2023-06-22T06:25:30;101963.72;;;25.45;50.41
29359;BME280;16347;53.232;6.556;2023-06-22T06:28:01;101964.97;;;25.49;50.17
29359;BME280;16347;53.232;6.556;2023-06-22T06:30:31;101962.84;;;25.52;49.98
29359;BME280;16347;53.232;6.556;2023-06-22T06:33:01;101972.69;;;25.54;49.49
29359;BME280;16347;53.232;6.556;2023-06-22T06:35:30;101961.28;;;25.56;49.43
29359;BME280;16347;53.232;6.556;2023-06-22T06:37:59;101969.19;;;25.59;49.30
29359;BME280;16347;53.232;6.556;2023-06-22T06:40:26;101963.38;;;25.60;49.64
29359;BME280;16347;53.232;6.556;2023-06-22T06:42:55;101974.06;;;25.63;49.05
29359;BME280;16347;53.232;6.556;2023-06-22T06:45:25;101969.56;;;25.62;48.91
29359;BME280;16347;53.232;6.556;2023-06-22T06:47:55;101964.38;;;25.66;48.91
29359;BME280;16347;53.232;6.556;2023-06-22T06:50:23;101959.47;;;25.68;49.01
29359;BME280;16347;53.232;6.556;2023-06-22T06:52:52;101964.78;;;25.69;49.09
29359;BME280;16347;53.232;6.556;2023-06-22T06:55:20;101971.22;;;25.70;49.06
29359;BME280;16347;53.232;6.556;2023-06-22T06:57:51;101963.25;;;25.73;48.87
29359;BME280;16347;53.232;6.556;2023-06-22T07:00:20;101969.88;;;25.72;49.02
29359;BME280;16347;53.232;6.556;2023-06-22T07:02:50;101960.44;;;25.73;48.67
29359;BME280;16347;53.232;6.556;2023-06-22T07:05:19;101970.28;;;25.76;48.60
29359;BME280;16347;53.232;6.556;2023-06-22T07:07:47;101969.44;;;25.75;48.66
29359;BME280;16347;53.232;6.556;2023-06-22T07:10:16;101966.41;;;25.77;48.60
29359;BME280;16347;53.232;6.556;2023-06-22T07:12:44;101967.28;;;25.77;48.82
29359;BME280;16347;53.232;6.556;2023-06-22T07:15:13;101970.91;;;25.78;48.75
29359;BME280;16347;53.232;6.556;2023-06-22T07:17:41;101967.03;;;25.79;48.52
29359;BME280;16347;53.232;6.556;2023-06-22T07:20:12;101966.81;;;25.80;48.75
29359;BME280;16347;53.232;6.556;2023-06-22T07:22:41;101967.41;;;25.82;48.42
29359;BME280;16347;53.232;6.556;2023-06-22T07:25:10;101964.41;;;25.84;48.17
29359;BME280;16347;53.232;6.556;2023-06-22T07:27:44;101973.16;;;25.87;48.27
29359;BME280;16347;53.232;6.556;2023-06-22T07:30:13;101966.72;;;25.87;48.35
29359;BME280;16347;53.232;6.556;2023-06-22T07:32:41;101957.50;;;25.86;47.67
29359;BME280;16347;53.232;6.556;2023-06-22T07:35:11;101961.75;;;25.89;48.26
29359;BME280;16347;53.232;6.556;2023-06-22T07:37:39;101957.28;;;25.88;47.99
29359;BME280;16347;53.232;6.556;2023-06-22T07:40:09;101962.00;;;25.87;48.08
29359;BME280;16347;53.232;6.556;2023-06-22T07:42:37;101971.81;;;25.90;47.77
29359;BME280;16347;53.232;6.556;2023-06-22T07:45:07;101953.78;;;25.92;47.78
29359;BME280;16347;53.232;6.556;2023-06-22T07:47:35;101946.06;;;25.94;47.69
29359;BME280;16347;53.232;6.556;2023-06-22T07:50:04;101944.34;;;25.93;47.32
29359;BME280;16347;53.232;6.556;2023-06-22T07:52:35;101940.50;;;25.94;47.31
29359;BME280;16347;53.232;6.556;2023-06-22T07:55:04;101942.16;;;25.95;47.21
29359;BME280;16347;53.232;6.556;2023-06-22T07:57:33;101931.88;;;25.96;46.90
29359;BME280;16347;53.232;6.556;2023-06-22T08:00:03;101924.16;;;25.98;46.95
29359;BME280;16347;53.232;6.556;2023-06-22T08:02:39;101935.03;;;25.99;46.79
29359;BME280;16347;53.232;6.556;2023-06-22T08:05:09;101925.81;;;25.99;46.81
29359;BME280;16347;53.232;6.556;2023-06-22T08:07:49;101919.19;;;26.00;46.73
29359;BME280;16347;53.232;6.556;2023-06-22T08:10:19;101923.41;;;26.02;46.61
29359;BME280;16347;53.232;6.556;2023-06-22T08:12:48;101924.28;;;26.03;46.40
29359;BME280;16347;53.232;6.556;2023-06-22T08:15:18;101923.19;;;26.04;46.48
29359;BME280;16347;53.232;6.556;2023-06-22T08:17:46;101926.38;;;26.08;46.17
29359;BME280;16347;53.232;6.556;2023-06-22T08:20:14;101918.22;;;26.06;46.09
29359;BME280;16347;53.232;6.556;2023-06-22T08:22:43;101926.38;;;26.08;46.00
29359;BME280;16347;53.232;6.556;2023-06-22T08:25:12;101922.72;;;26.07;45.65
29359;BME280;16347;53.232;6.556;2023-06-22T08:27:44;101926.13;;;26.09;45.69
29359;BME280;16347;53.232;6.556;2023-06-22T08:30:13;101925.28;;;26.09;45.43
29359;BME280;16347;53.232;6.556;2023-06-22T08:32:41;101920.53;;;26.09;45.66
29359;BME280;16347;53.232;6.556;2023-06-22T08:35:10;101923.13;;;26.11;45.86
29359;BME280;16347;53.232;6.556;2023-06-22T08:37:38;101923.97;;;26.11;45.61
29359;BME280;16347;53.232;6.556;2023-06-22T08:40:08;101923.72;;;26.13;45.34
29359;BME280;16347;53.232;6.556;2023-06-22T08:42:40;101926.50;;;26.13;45.41
29359;BME280;16347;53.232;6.556;2023-06-22T08:45:10;101924.56;;;26.13;45.76
29359;BME280;16347;53.232;6.556;2023-06-22T08:47:38;101920.44;;;26.16;45.38
29359;BME280;16347;53.232;6.556;2023-06-22T08:50:08;101914.22;;;26.20;45.56
29359;BME280;16347;53.232;6.556;2023-06-22T08:52:38;101915.94;;;26.21;45.34
29359;BME280;16347;53.232;6.556;2023-06-22T08:55:08;101911.81;;;26.24;45.20
29359;BME280;16347;53.232;6.556;2023-06-22T08:57:39;101915.44;;;26.24;44.99
29359;BME280;16347;53.232;6.556;2023-06-22T09:00:08;101914.38;;;26.25;45.14
29359;BME280;16347;53.232;6.556;2023-06-22T09:02:43;101904.91;;;26.26;44.78
29359;BME280;16347;53.232;6.556;2023-06-22T09:05:12;101909.41;;;26.27;44.71
29359;BME280;16347;53.232;6.556;2023-06-22T09:07:41;101897.16;;;26.28;44.64
29359;BME280;16347;53.232;6.556;2023-06-22T09:10:10;101898.84;;;26.29;44.73
29359;BME280;16347;53.232;6.556;2023-06-22T09:12:40;101900.34;;;26.32;44.36
29359;BME280;16347;53.232;6.556;2023-06-22T09:15:09;101899.22;;;26.33;44.30
29359;BME280;16347;53.232;6.556;2023-06-22T09:17:43;101896.22;;;26.34;44.35
29359;BME280;16347;53.232;6.556;2023-06-22T09:20:14;101896.22;;;26.34;44.38
29359;BME280;16347;53.232;6.556;2023-06-22T09:22:42;101892.09;;;26.37;44.50
29359;BME280;16347;53.232;6.556;2023-06-22T09:25:10;101887.16;;;26.39;44.64
29359;BME280;16347;53.232;6.556;2023-06-22T09:27:41;101890.31;;;26.42;44.34
29359;BME280;16347;53.232;6.556;2023-06-22T09:30:09;101896.47;;;26.44;44.41
29359;BME280;16347;53.232;6.556;2023-06-22T09:32:38;101883.13;;;26.46;44.37
29359;BME280;16347;53.232;6.556;2023-06-22T09:35:07;101882.06;;;26.47;44.48
29359;BME280;16347;53.232;6.556;2023-06-22T09:37:36;101886.06;;;26.51;44.17
29359;BME280;16347;53.232;6.556;2023-06-22T09:40:06;101878.78;;;26.50;44.30
29359;BME280;16347;53.232;6.556;2023-06-22T09:42:38;101875.78;;;26.52;44.53
29359;BME280;16347;53.232;6.556;2023-06-22T09:45:09;101880.63;;;26.57;44.74
29359;BME280;16347;53.232;6.556;2023-06-22T09:47:37;101869.22;;;26.58;44.77
29359;BME280;16347;53.232;6.556;2023-06-22T09:50:06;101875.41;;;26.60;44.88
29359;BME280;16347;53.232;6.556;2023-06-22T09:52:35;101866.44;;;26.58;44.44
29359;BME280;16347;53.232;6.556;2023-06-22T09:55:07;101874.94;;;26.63;44.55
29359;BME280;16347;53.232;6.556;2023-06-22T09:57:36;101860.75;;;26.65;44.02
29359;BME280;16347;53.232;6.556;2023-06-22T10:00:06;101860.50;;;26.66;44.27
29359;BME280;16347;53.232;6.556;2023-06-22T10:02:41;101863.66;;;26.70;44.01
29359;BME280;16347;53.232;6.556;2023-06-22T10:05:09;101857.59;;;26.73;44.13
29359;BME280;16347;53.232;6.556;2023-06-22T10:07:38;101850.94;;;26.74;44.30
29359;BME280;16347;53.232;6.556;2023-06-22T10:10:11;101855.78;;;26.78;44.51
29359;BME280;16347;53.232;6.556;2023-06-22T10:12:42;101862.81;;;26.81;44.30
29359;BME280;16347;53.232;6.556;2023-06-22T10:15:11;101866.03;;;26.84;44.14
29359;BME280;16347;53.232;6.556;2023-06-22T10:17:41;101858.72;;;26.83;44.11
29359;BME280;16347;53.232;6.556;2023-06-22T10:20:10;101860.44;;;26.84;44.11
29359;BME280;16347;53.232;6.556;2023-06-22T10:22:40;101861.88;;;26.87;44.00
29359;BME280;16347;53.232;6.556;2023-06-22T10:25:09;101849.88;;;26.86;44.11
29359;BME280;16347;53.232;6.556;2023-06-22T10:27:37;101862.75;;;26.87;44.26
29359;BME280;16347;53.232;6.556;2023-06-22T10:30:08;101848.94;;;26.92;44.91
29359;BME280;16347;53.232;6.556;2023-06-22T10:32:38;101840.44;;;26.99;44.47
29359;BME280;16347;53.232;6.556;2023-06-22T10:35:08;101842.09;;;27.00;44.51
29359;BME280;16347;53.232;6.556;2023-06-22T10:37:37;101832.41;;;27.02;43.64
29359;BME280;16347;53.232;6.556;2023-06-22T10:40:07;101833.25;;;27.03;43.57
29359;BME280;16347;53.232;6.556;2023-06-22T10:42:36;101829.13;;;27.06;43.52
29359;BME280;16347;53.232;6.556;2023-06-22T10:45:04;101825.84;;;27.09;43.17
29359;BME280;16347;53.232;6.556;2023-06-22T10:47:33;101833.97;;;27.10;43.41
29359;BME280;16347;53.232;6.556;2023-06-22T10:50:01;101835.94;;;27.10;43.51
29359;BME280;16347;53.232;6.556;2023-06-22T10:52:31;101834.31;;;27.14;43.56
29359;BME280;16347;53.232;6.556;2023-06-22T10:54:59;101827.06;;;27.13;43.21
29359;BME280;16347;53.232;6.556;2023-06-22T10:57:27;101823.16;;;27.14;43.50
29359;BME280;16347;53.232;6.556;2023-06-22T10:59:56;101833.84;;;27.17;44.37
29359;BME280;16347;53.232;6.556;2023-06-22T11:02:24;101824.72;;;27.21;43.92
29359;BME280;16347;53.232;6.556;2023-06-22T11:04:55;101815.88;;;27.24;44.04
29359;BME280;16347;53.232;6.556;2023-06-22T11:07:23;101816.81;;;27.30;43.95
29359;BME280;16347;53.232;6.556;2023-06-22T11:09:53;101824.72;;;27.33;43.74
29359;BME280;16347;53.232;6.556;2023-06-22T11:12:20;101808.56;;;27.35;43.70
29359;BME280;16347;53.232;6.556;2023-06-22T11:14:49;101819.00;;;27.39;43.53
29359;BME280;16347;53.232;6.556;2023-06-22T11:17:18;101816.34;;;27.44;43.33
29359;BME280;16347;53.232;6.556;2023-06-22T11:19:46;101817.28;;;27.50;43.81
29359;BME280;16347;53.232;6.556;2023-06-22T11:22:14;101816.56;;;27.55;43.80
29359;BME280;16347;53.232;6.556;2023-06-22T11:24:43;101813.38;;;27.63;43.43
29359;BME280;16347;53.232;6.556;2023-06-22T11:27:12;101810.69;;;27.68;43.55
29359;BME280;16347;53.232;6.556;2023-06-22T11:29:40;101816.38;;;27.73;43.52
29359;BME280;16347;53.232;6.556;2023-06-22T11:32:08;101810.28;;;27.76;44.19
29359;BME280;16347;53.232;6.556;2023-06-22T11:34:40;101817.44;;;27.83;44.14
29359;BME280;16347;53.232;6.556;2023-06-22T11:37:08;101817.16;;;27.85;43.91
29359;BME280;16347;53.232;6.556;2023-06-22T11:39:36;101812.16;;;27.87;43.69
29359;BME280;16347;53.232;6.556;2023-06-22T11:42:14;101815.59;;;27.89;43.50
29359;BME280;16347;53.232;6.556;2023-06-22T11:44:42;101818.59;;;27.87;43.68
29359;BME280;16347;53.232;6.556;2023-06-22T11:47:10;101821.75;;;27.91;43.49
29359;BME280;16347;53.232;6.556;2023-06-22T11:49:38;101818.47;;;27.94;42.59
29359;BME280;16347;53.232;6.556;2023-06-22T11:52:07;101813.84;;;27.99;42.88
29359;BME280;16347;53.232;6.556;2023-06-22T11:54:35;101800.72;;;28.00;42.70
29359;BME280;16347;53.232;6.556;2023-06-22T11:57:04;101794.59;;;28.03;42.78
29359;BME280;16347;53.232;6.556;2023-06-22T11:59:33;101798.84;;;28.06;42.69
29359;BME280;16347;53.232;6.556;2023-06-22T12:02:01;101801.41;;;28.07;42.88
29359;BME280;16347;53.232;6.556;2023-06-22T12:04:31;101800.94;;;28.10;43.01
29359;BME280;16347;53.232;6.556;2023-06-22T12:07:00;101802.09;;;28.14;42.79
29359;BME280;16347;53.232;6.556;2023-06-22T12:09:29;101801.84;;;28.16;42.10
29359;BME280;16347;53.232;6.556;2023-06-22T12:11:57;101786.78;;;28.17;42.14
29359;BME280;16347;53.232;6.556;2023-06-22T12:14:25;101795.75;;;28.19;42.44
29359;BME280;16347;53.232;6.556;2023-06-22T12:16:57;101789.41;;;28.23;42.92
29359;BME280;16347;53.232;6.556;2023-06-22T12:19:25;101784.97;;;28.27;42.62
29359;BME280;16347;53.232;6.556;2023-06-22T12:21:53;101782.53;;;28.31;42.85
29359;BME280;16347;53.232;6.556;2023-06-22T12:24:21;101781.19;;;28.33;41.97
29359;BME280;16347;53.232;6.556;2023-06-22T12:26:49;101770.53;;;28.30;42.07
29359;BME280;16347;53.232;6.556;2023-06-22T12:29:20;101769.41;;;28.31;41.79
29359;BME280;16347;53.232;6.556;2023-06-22T12:31:48;101767.97;;;28.29;42.09
29359;BME280;16347;53.232;6.556;2023-06-22T12:34:18;101769.91;;;28.28;41.67
29359;BME280;16347;53.232;6.556;2023-06-22T12:36:46;101770.41;;;28.25;42.22
29359;BME280;16347;53.232;6.556;2023-06-22T12:39:15;101764.81;;;28.25;42.00
29359;BME280;16347;53.232;6.556;2023-06-22T12:41:43;101760.59;;;28.23;42.20
29359;BME280;16347;53.232;6.556;2023-06-22T12:44:11;101757.19;;;28.21;41.82
29359;BME280;16347;53.232;6.556;2023-06-22T12:46:39;101758.03;;;28.21;41.75
29359;BME280;16347;53.232;6.556;2023-06-22T12:49:07;101755.16;;;28.16;41.91
29359;BME280;16347;53.232;6.556;2023-06-22T12:51:41;101754.66;;;28.19;41.69
29359;BME280;16347;53.232;6.556;2023-06-22T12:54:10;101755.41;;;28.15;42.21
29359;BME280;16347;53.232;6.556;2023-06-22T12:56:38;101755.41;;;28.15;42.25
29359;BME280;16347;53.232;6.556;2023-06-22T12:59:07;101761.28;;;28.13;41.90
29359;BME280;16347;53.232;6.556;2023-06-22T13:01:35;101752.25;;;28.11;42.00